Nearby METAR Reports

KLNK - Lincoln, Nebraska, USA
Distance from station: WNW 8mi, 13km
Updated: Thu, 09-Jul-2020 2:54pm CDT
Clear
Clear
 Wind from NE
Wind: NE 10 mph , 17 km/h
Temperature: 84°F , 29°C
Heat Index: 85°F , 29°C
Dew Point: 63°F , 17°C
Humidity: 48%
Barometer: 29.92 inHg , 1013.2 hPa
Clouds: Clear
Visibility: 10 miles , 16 km
2020/07/09 19:54 KLNK 091954Z 04009KT 10SM CLR 29/17 A2992 RMK AO2 SLP121 T02890172
KAHQ - Wahoo, Nebraska, USA
Distance from station: N 31mi, 49km
Updated: Thu, 09-Jul-2020 2:55pm CDT
Clear
Clear
 Wind from N
Wind: N 9 mph , 15 km/h
Temperature: 84°F , 29°C
Heat Index: 85°F , 29°C
Dew Point: 63°F , 17°C
Humidity: 48%
Barometer: 29.91 inHg , 1012.9 hPa
Clouds: Clear
Visibility: 10 miles , 16 km
2020/07/09 19:55 KAHQ 091955Z AUTO 36008KT 10SM CLR 29/17 A2991 RMK AO2 T02890173
 
KBIE - Beatrice Municip, Nebraska, USA
Distance from station: S 36mi, 57km
Updated: Thu, 09-Jul-2020 2:55pm CDT
Clear
Clear
 Wind from NNE
Wind: NNE 9 mph , 15 km/h
Temperature: 82°F , 28°C
Heat Index: 84°F , 29°C
Dew Point: 64°F , 18°C
Humidity: 55%
Barometer: 29.93 inHg , 1013.5 hPa
Clouds: Clear
Visibility: 10 miles , 16 km
2020/07/09 19:55 KBIE 091955Z AUTO 03008KT 10SM CLR 28/18 A2993 RMK AO2 T02810183
KMLE - Omaha/Millard, Nebraska, USA
Distance from station: NE 39mi, 63km
Updated: Thu, 09-Jul-2020 2:55pm CDT
Clear
Clear
 Wind from NNW
Wind: NNW 9 mph , 15 km/h, Gust: 16 mph , 26 km/h
Temperature: 84°F , 29°C
Heat Index: 84°F , 29°C
Dew Point: 61°F , 16°C
Humidity: 45%
Barometer: 29.88 inHg , 1011.9 hPa
Clouds: Clear
Visibility: 10 miles , 16 km
2020/07/09 19:55 KMLE 091955Z AUTO 33008G14KT 10SM CLR 29/16 A2988 RMK AO2 T02920163
 
KPMV - Plattsmouth Muni, Nebraska, USA
Distance from station: ENE 39mi, 63km
Updated: Thu, 09-Jul-2020 2:55pm CDT
Clear
Clear
 Wind from N
Wind: N 12 mph , 19 km/h, Gust: 20 mph , 31 km/h
Temperature: 82°F , 28°C
Heat Index: 83°F , 28°C
Dew Point: 63°F , 17°C
Humidity: 51%
Barometer: 29.89 inHg , 1012.2 hPa
Clouds: Clear
Visibility: 10 miles , 16 km
2020/07/09 19:55 KPMV 091955Z AUTO 35010G17KT 320V020 10SM CLR 28/17 A2989 RMK AO2 T02810168
KAFK - Nebraska City, Nebraska, USA
Distance from station: ESE 43mi, 69km
Updated: Thu, 09-Jul-2020 2:55pm CDT
Clear
Clear
 Wind from NNE
Wind: NNE 13 mph , 20 km/h, Gust: 18 mph , 30 km/h
Temperature: 82°F , 28°C
Heat Index: 84°F , 29°C
Dew Point: 66°F , 19°C
Humidity: 58%
Barometer: 29.88 inHg , 1011.9 hPa
Clouds: Clear
Visibility: 10 miles , 16 km
2020/07/09 19:55 KAFK 091955Z AUTO 02011G16KT 10SM CLR 28/19 A2988 RMK AO2 T02810189
 
KOFF - Offutt Afb/Belle, Nebraska, USA
Distance from station: ENE 44mi, 70km
Updated: Thu, 09-Jul-2020 2:56pm CDT
Clear
Clear
 Wind from N
Wind: N 17 mph , 28 km/h, Gust: 24 mph , 39 km/h
Temperature: 84°F , 29°C
Heat Index: 85°F , 29°C
Dew Point: 63°F , 17°C
Humidity: 48%
Barometer: 29.87 inHg , 1011.5 hPa
Clouds: Clear
Visibility: 10 miles , 16 km
2020/07/09 19:56 KOFF 091956Z AUTO 36015G21KT 10SM CLR 29/17 A2987 RMK AO2 SLP110 T02920167 $
KFET - Fremont Muni Arp, Nebraska, USA
Distance from station: N 46mi, 74km
Updated: Thu, 09-Jul-2020 2:55pm CDT
Clear
Clear
 Wind from N
Wind: N 5 mph , 7 km/h
Temperature: 84°F , 29°C
Heat Index: 86°F , 30°C
Dew Point: 66°F , 19°C
Humidity: 55%
Barometer: 29.91 inHg , 1012.9 hPa
Clouds: Clear
Visibility: 10 miles , 16 km
2020/07/09 19:55 KFET 091955Z AUTO 35004KT 10SM CLR 29/19 A2991 RMK AO2 T02870189
 
KBTA - Blair Muni, Nebraska, USA
Distance from station: NNE 51mi, 82km
Updated: Thu, 09-Jul-2020 2:55pm CDT
Clear
Clear
 Wind from N
Wind: N 9 mph , 15 km/h, Gust: 16 mph , 26 km/h
Temperature: 81°F , 27°C
Heat Index: 83°F , 28°C
Dew Point: 66°F , 19°C
Humidity: 62%
Barometer: 29.89 inHg , 1012.2 hPa
Clouds: Clear
Visibility: 10 miles , 16 km
2020/07/09 19:55 KBTA 091955Z AUTO 35008G14KT 10SM CLR 27/19 A2989 RMK AO2 T02730188
KJYR - York, Nebraska, USA
Distance from station: W 52mi, 84km
Updated: Thu, 09-Jul-2020 2:55pm CDT
Clear
Clear
 Wind from NNE
Wind: NNE 8 mph , 13 km/h
Temperature: 82°F , 28°C
Heat Index: 84°F , 29°C
Dew Point: 64°F , 18°C
Humidity: 55%
Barometer: 29.94 inHg , 1013.9 hPa
Clouds: Clear
Visibility: 10 miles , 16 km
2020/07/09 19:55 KJYR 091955Z AUTO 02007KT 10SM CLR 28/18 A2994 RMK AO2 P0012
 
KOMA - Omaha/Eppley, Nebraska, USA
Distance from station: NE 53mi, 85km
Updated: Thu, 09-Jul-2020 2:52pm CDT
Partly Cloudy
Partly Cloudy
 Wind from N
Wind: N 16 mph , 26 km/h
Temperature: 84°F , 29°C
Heat Index: 85°F , 29°C
Dew Point: 63°F , 17°C
Humidity: 48%
Barometer: 29.86 inHg , 1011.2 hPa
Clouds: Partly Cloudy
Visibility: 10 miles , 16 km
Cloud details: Few Clouds 4500 ft
Few Clouds 12000 ft
Partly Cloudy 25000 ft
2020/07/09 19:52 KOMA 091952Z 36014KT 10SM FEW045 FEW120 SCT250 29/17 A2986 RMK AO2 SLP102 T02890172
KOLU - Columbus Muni, Nebraska, USA
Distance from station: NW 58mi, 93km
Updated: Thu, 09-Jul-2020 2:56pm CDT
Partly Cloudy
Partly Cloudy
 Wind from ENE
Wind: ENE 6 mph , 9 km/h
Temperature: 82°F , 28°C
Heat Index: 84°F , 29°C
Dew Point: 64°F , 18°C
Humidity: 55%
Barometer: 29.93 inHg , 1013.5 hPa
Clouds: Partly Cloudy
Visibility: 10 miles , 16 km
Cloud details: Partly Cloudy 4500 ft
2020/07/09 19:56 KOLU 091956Z AUTO 06005KT 10SM SCT045 28/18 A2993 RMK AO2 SLP128 T02780183